Time;durP1;ratioP1;P1;durP2;ratioP2;P2;SDS_P1;SDS_P2;PMS_P1;PMS_P2;Temp;Humidity;BMP_temperature;BMP_pressure;BME280_temperature;BME280_humidity;BME280_pressure;Samples;Min_cycle;Max_cycle;Signal;HPM_P1;HPM_P2
2023/09/25 00:02:07;;;;;;;3.43;3.37;;;;;;;12.33;79.43;101930.22;5053638;28;20257;-68
2023/09/25 00:04:34;;;;;;;4.07;3.97;;;;;;;12.33;79.40;101927.53;5054191;28;20195;-68
2023/09/25 00:07:03;;;;;;;4.13;4.03;;;;;;;12.30;79.04;101929.63;5053948;28;20194;-68
2023/09/25 00:09:30;;;;;;;3.90;3.80;;;;;;;12.25;79.15;101926.50;5053833;28;20597;-68
2023/09/25 00:11:56;;;;;;;3.67;3.57;;;;;;;12.21;79.48;101925.91;5052860;28;20612;-68
2023/09/25 00:14:23;;;;;;;3.80;3.80;;;;;;;12.20;79.30;101924.22;5053384;28;20735;-68
2023/09/25 00:16:49;;;;;;;3.37;3.37;;;;;;;12.16;79.33;101922.78;5053694;28;20207;-68
2023/09/25 00:19:16;;;;;;;3.80;3.80;;;;;;;12.10;79.38;101917.94;5053448;28;20188;-68
2023/09/25 00:21:43;;;;;;;3.13;3.03;;;;;;;12.03;79.60;101919.47;5053395;28;20215;-68
2023/09/25 00:24:09;;;;;;;4.23;3.93;;;;;;;11.99;79.94;101922.53;5053597;28;20195;-68
2023/09/25 00:26:36;;;;;;;4.23;3.90;;;;;;;11.95;80.50;101932.66;5053352;28;20591;-68
2023/09/25 00:29:03;;;;;;;4.00;3.80;;;;;;;11.95;80.38;101921.94;5053320;28;20229;-68
2023/09/25 00:31:29;;;;;;;4.40;4.13;;;;;;;11.95;80.30;101931.81;5053457;28;20207;-68
2023/09/25 00:33:56;;;;;;;4.10;3.77;;;;;;;11.89;80.43;101935.84;5053500;28;20536;-68
2023/09/25 00:36:22;;;;;;;4.63;3.40;;;;;;;11.87;80.16;101935.16;5053682;28;20559;-68
2023/09/25 00:38:50;;;;;;;3.67;3.67;;;;;;;11.87;80.11;101935.16;5053467;28;20187;-69
2023/09/25 00:41:16;;;;;;;4.07;3.97;;;;;;;11.79;80.34;101937.63;5053327;28;20195;-69
2023/09/25 00:43:42;;;;;;;3.60;3.47;;;;;;;11.81;80.21;101941.03;5053113;28;20195;-69
2023/09/25 00:46:09;;;;;;;3.87;3.87;;;;;;;11.75;80.43;101942.38;5053120;28;20183;-69
2023/09/25 00:48:35;;;;;;;3.60;3.60;;;;;;;11.64;80.62;101937.06;5053077;28;20531;-69
2023/09/25 00:51:04;;;;;;;3.63;3.57;;;;;;;11.54;80.92;101940.66;5053224;28;20214;-68
2023/09/25 00:53:31;;;;;;;3.07;3.07;;;;;;;11.49;81.24;101935.69;5051798;28;20187;-68
2023/09/25 00:55:58;;;;;;;9.30;3.83;;;;;;;11.39;81.19;101932.06;5053202;28;20207;-68
2023/09/25 00:58:25;;;;;;;3.90;3.80;;;;;;;11.21;81.77;101926.38;5051710;28;20727;-68
2023/09/25 01:00:55;;;;;;;3.70;3.60;;;;;;;11.12;82.05;101932.50;5053438;28;20211;-68
2023/09/25 01:03:22;;;;;;;3.63;3.40;;;;;;;11.04;82.30;101926.06;5051706;28;20187;-68
2023/09/25 01:05:49;;;;;;;4.57;4.33;;;;;;;11.03;82.83;101924.38;5053456;28;20215;-68
2023/09/25 01:08:15;;;;;;;3.60;3.60;;;;;;;11.00;82.90;101926.31;5053156;28;20721;-68
2023/09/25 01:10:42;;;;;;;9.30;3.33;;;;;;;10.99;83.33;101916.59;5053197;28;20256;-68
2023/09/25 01:13:10;;;;;;;3.03;2.93;;;;;;;10.99;83.62;101924.63;5052816;28;20190;-68
2023/09/25 01:15:37;;;;;;;3.57;3.47;;;;;;;11.02;83.65;101926.22;5052628;28;20264;-68
2023/09/25 01:18:05;;;;;;;3.50;3.40;;;;;;;11.05;83.82;101925.94;5051506;28;20191;-68
2023/09/25 01:20:31;;;;;;;4.10;3.90;;;;;;;11.08;84.04;101924.84;5052730;28;20211;-68
2023/09/25 01:22:58;;;;;;;4.43;4.33;;;;;;;11.08;84.31;101928.38;5055797;28;20191;-68
2023/09/25 01:25:25;;;;;;;3.63;3.57;;;;;;;11.08;84.58;101932.88;5055440;28;20183;-70
2023/09/25 01:27:51;;;;;;;3.43;3.43;;;;;;;11.12;84.16;101939.69;5056594;28;20191;-70
2023/09/25 01:30:18;;;;;;;3.33;3.30;;;;;;;11.17;83.90;101934.78;5056908;28;20206;-69
2023/09/25 01:32:46;;;;;;;3.40;3.40;;;;;;;11.10;83.90;101934.47;5056513;28;20199;-69
2023/09/25 01:35:16;;;;;;;4.43;4.30;;;;;;;11.08;82.69;101932.88;5055135;28;20195;-69
2023/09/25 01:37:44;;;;;;;4.00;4.00;;;;;;;10.96;83.11;101930.22;5055212;28;20712;-69
2023/09/25 01:40:17;;;;;;;3.80;3.70;;;;;;;10.94;83.36;101928.66;5056583;28;20210;-68
2023/09/25 01:42:45;;;;;;;4.20;4.10;;;;;;;10.92;83.37;101934.13;5056701;28;20576;-69
2023/09/25 01:45:16;;;;;;;4.60;4.50;;;;;;;10.91;83.75;101932.41;5056298;28;20598;-69
2023/09/25 01:47:49;;;;;;;5.60;3.83;;;;;;;10.91;83.64;101931.56;5056572;28;20176;-69
2023/09/25 01:50:21;;;;;;;9.40;3.70;;;;;;;10.85;84.24;101930.25;5054872;28;20208;-69
2023/09/25 01:52:51;;;;;;;4.30;4.10;;;;;;;10.81;84.21;101933.31;5056193;28;20332;-69
2023/09/25 01:55:17;;;;;;;4.27;4.17;;;;;;;10.76;84.44;101930.13;5056051;28;20252;-69
2023/09/25 01:57:44;;;;;;;3.77;3.67;;;;;;;10.76;84.55;101928.31;5056098;28;20237;-69
2023/09/25 02:00:12;;;;;;;3.60;3.60;;;;;;;10.80;84.69;101940.47;5054720;28;21509;-68
2023/09/25 02:02:41;;;;;;;3.90;3.80;;;;;;;10.81;84.93;101936.84;5056025;28;20164;-68
2023/09/25 02:05:08;;;;;;;3.87;3.67;;;;;;;10.82;85.21;101938.50;5055960;28;20218;-68
2023/09/25 02:07:36;;;;;;;4.23;4.13;;;;;;;10.77;85.17;101942.53;5054670;28;20188;-68
2023/09/25 02:10:02;;;;;;;5.00;4.37;;;;;;;10.74;85.44;101932.06;5055732;28;20201;-68
2023/09/25 02:12:29;;;;;;;4.03;3.83;;;;;;;10.78;84.96;101938.88;5055796;28;20258;-68
2023/09/25 02:15:02;;;;;;;5.07;4.43;;;;;;;10.80;85.49;101942.28;5054400;28;20203;-68
2023/09/25 02:17:29;;;;;;;3.80;3.73;;;;;;;10.81;85.41;101939.50;5054378;28;20199;-68
2023/09/25 02:20:03;;;;;;;3.80;3.60;;;;;;;10.81;85.40;101941.31;5055863;28;20187;-68
2023/09/25 02:22:30;;;;;;;3.93;3.83;;;;;;;10.82;85.46;101946.53;5055664;28;20179;-68
2023/09/25 02:24:56;;;;;;;3.67;3.57;;;;;;;10.87;85.30;101947.03;5054356;28;20222;-68
2023/09/25 02:27:23;;;;;;;3.50;3.50;;;;;;;10.88;85.40;101943.38;5055556;28;20241;-68
2023/09/25 02:29:49;;;;;;;4.03;3.93;;;;;;;10.91;85.25;101940.44;5055503;28;20206;-68
2023/09/25 02:32:16;;;;;;;3.93;3.80;;;;;;;10.88;85.48;101937.16;5054170;28;20571;-68
2023/09/25 02:34:44;;;;;;;4.33;4.13;;;;;;;10.88;85.44;101942.53;5054610;28;20595;-68
2023/09/25 02:37:10;;;;;;;3.73;3.63;;;;;;;10.88;85.30;101939.84;5055246;28;20206;-68
2023/09/25 02:39:37;;;;;;;4.30;4.30;;;;;;;10.83;85.43;101945.56;5055288;28;20187;-68
2023/09/25 02:42:03;;;;;;;4.33;4.20;;;;;;;10.85;85.02;101943.63;5055689;28;20211;-68
2023/09/25 02:44:30;;;;;;;4.03;3.93;;;;;;;10.81;85.03;101947.53;5055170;28;20659;-68
2023/09/25 02:46:56;;;;;;;3.80;3.80;;;;;;;10.76;85.17;101947.03;5055167;28;20670;-68
2023/09/25 02:49:23;;;;;;;3.53;3.53;;;;;;;10.77;85.43;101953.25;5053862;28;20233;-68
2023/09/25 02:51:50;;;;;;;4.10;3.90;;;;;;;10.78;85.35;101954.94;5053729;28;20215;-68
2023/09/25 02:54:16;;;;;;;3.10;3.10;;;;;;;10.77;85.45;101959.44;5053770;28;20191;-68
2023/09/25 02:56:43;;;;;;;3.80;3.70;;;;;;;10.78;85.49;101963.81;5054889;28;20214;-68
2023/09/25 02:59:10;;;;;;;3.77;3.63;;;;;;;10.75;85.50;101958.72;5054963;28;20595;-68
2023/09/25 03:01:37;;;;;;;3.40;3.40;;;;;;;10.71;85.35;101956.41;5053562;28;20210;-68
2023/09/25 03:04:03;;;;;;;4.40;4.03;;;;;;;10.64;85.52;101955.19;5054820;28;20187;-68
2023/09/25 03:06:30;;;;;;;6.10;3.87;;;;;;;10.54;85.88;101958.59;5055329;28;20210;-68
2023/09/25 03:08:56;;;;;;;4.37;4.20;;;;;;;10.46;86.24;101947.66;5054793;28;20198;-69
2023/09/25 03:11:23;;;;;;;3.93;3.93;;;;;;;10.42;86.34;101959.56;5053402;28;20277;-69
2023/09/25 03:13:50;;;;;;;4.87;4.43;;;;;;;10.41;86.41;101955.19;5054508;28;20190;-69
2023/09/25 03:16:17;;;;;;;4.03;3.93;;;;;;;10.45;86.57;101955.78;5054828;28;20195;-69
2023/09/25 03:18:44;;;;;;;6.80;4.73;;;;;;;10.42;86.86;101954.22;5055074;28;20202;-69
2023/09/25 03:21:12;;;;;;;4.17;4.07;;;;;;;10.43;86.80;101969.28;5053169;28;20231;-68
2023/09/25 03:23:40;;;;;;;5.30;5.13;;;;;;;10.41;86.92;101971.22;5054475;28;20210;-68
2023/09/25 03:26:17;;;;;;;4.50;4.30;;;;;;;10.43;86.88;101971.13;5053149;28;20191;-68
2023/09/25 03:28:45;;;;;;;3.97;3.87;;;;;;;10.48;86.79;101972.44;5054372;28;20175;-68
2023/09/25 03:31:12;;;;;;;4.43;4.13;;;;;;;10.50;86.66;101970.50;5054315;28;20217;-68
2023/09/25 03:33:40;;;;;;;4.37;4.27;;;;;;;10.53;86.44;101974.75;5054217;28;20191;-68
2023/09/25 03:36:07;;;;;;;6.60;4.10;;;;;;;10.50;86.47;101978.53;5052887;28;20199;-68
2023/09/25 03:38:36;;;;;;;4.37;4.23;;;;;;;10.44;86.47;101980.81;5054148;28;20225;-68
2023/09/25 03:41:02;;;;;;;3.80;3.80;;;;;;;10.43;86.41;101979.13;5052753;28;20215;-68
2023/09/25 03:43:29;;;;;;;3.90;3.90;;;;;;;10.44;86.61;101976.31;5053557;28;20204;-68
2023/09/25 03:45:55;;;;;;;4.77;4.67;;;;;;;10.45;86.32;101974.50;5052511;28;20199;-68
2023/09/25 03:48:22;;;;;;;8.97;4.60;;;;;;;10.43;86.55;101968.44;5053935;28;20206;-68
2023/09/25 03:50:49;;;;;;;5.30;5.20;;;;;;;10.44;86.50;101979.00;5052614;28;20211;-68
2023/09/25 03:53:16;;;;;;;6.90;4.70;;;;;;;10.43;86.52;101968.44;5054181;28;20206;-68
2023/09/25 03:55:43;;;;;;;5.40;5.10;;;;;;;10.43;86.44;101977.31;5052503;28;20257;-68
2023/09/25 03:58:09;;;;;;;5.60;5.30;;;;;;;10.42;86.66;101975.59;5054072;28;20244;-68
2023/09/25 04:00:38;;;;;;;7.13;6.50;;;;;;;10.41;86.81;101979.25;5053719;28;20199;-68
2023/09/25 04:03:09;;;;;;;6.23;5.50;;;;;;;10.40;86.90;101985.56;5053768;28;20179;-68
2023/09/25 04:05:36;;;;;;;5.03;4.73;;;;;;;10.39;87.21;101989.22;5053681;28;20270;-68
2023/09/25 04:08:05;;;;;;;7.47;6.10;;;;;;;10.38;87.10;101975.97;5053558;28;20195;-68
2023/09/25 04:10:31;;;;;;;5.47;5.27;;;;;;;10.41;87.03;101981.91;5053503;28;20329;-68
2023/09/25 04:12:58;;;;;;;5.13;5.00;;;;;;;10.46;87.10;101985.09;5052652;28;20184;-68
2023/09/25 04:15:25;;;;;;;6.17;5.97;;;;;;;10.47;87.00;101980.59;5053383;28;20249;-68
2023/09/25 04:17:52;;;;;;;5.37;4.57;;;;;;;10.46;86.76;101976.22;5053317;28;20210;-68
2023/09/25 04:20:25;;;;;;;5.17;4.80;;;;;;;10.43;86.97;101981.81;5053370;28;20205;-68
2023/09/25 04:22:53;;;;;;;5.10;5.00;;;;;;;10.45;86.84;101985.19;5053951;28;20176;-68
2023/09/25 04:25:19;;;;;;;6.50;6.20;;;;;;;10.52;86.77;101983.75;5053353;28;20195;-68
2023/09/25 04:27:54;;;;;;;5.70;5.30;;;;;;;10.48;86.78;101987.66;5053311;28;20233;-68
2023/09/25 04:30:22;;;;;;;5.37;5.20;;;;;;;10.49;86.85;101989.31;5053470;28;20577;-68
2023/09/25 04:32:53;;;;;;;5.00;4.80;;;;;;;10.48;86.68;101983.13;5053262;28;20291;-68
2023/09/25 04:35:21;;;;;;;5.60;5.20;;;;;;;10.48;86.68;101984.97;5053286;28;20635;-68
2023/09/25 04:37:48;;;;;;;5.37;5.17;;;;;;;10.48;86.89;101982.31;5053100;28;20690;-68
2023/09/25 04:40:22;;;;;;;5.30;5.00;;;;;;;10.50;86.66;101983.88;5053124;28;20211;-68
2023/09/25 04:42:50;;;;;;;5.77;5.57;;;;;;;10.48;86.64;101984.97;5053461;28;20301;-68
2023/09/25 04:45:18;;;;;;;4.93;4.73;;;;;;;10.52;86.70;101983.75;5053125;28;20214;-69
2023/09/25 04:47:53;;;;;;;7.17;5.67;;;;;;;10.50;86.66;101980.34;5053333;28;20191;-69
2023/09/25 04:50:21;;;;;;;5.33;5.10;;;;;;;10.48;86.78;101976.97;5053322;28;20616;-68
2023/09/25 04:52:51;;;;;;;5.20;4.90;;;;;;;10.44;86.69;101973.66;5053002;28;20222;-68
2023/09/25 04:55:18;;;;;;;5.57;5.37;;;;;;;10.42;86.44;101970.25;5053026;28;20233;-68
2023/09/25 04:57:46;;;;;;;5.60;5.30;;;;;;;10.38;87.02;101967.94;5056008;28;20597;-68
2023/09/25 05:00:21;;;;;;;5.17;5.07;;;;;;;10.42;86.78;101972.94;5057108;28;20269;-68
2023/09/25 05:02:51;;;;;;;5.20;4.90;;;;;;;10.47;87.01;101975.25;5057390;28;20167;-68
2023/09/25 05:05:18;;;;;;;5.27;5.17;;;;;;;10.51;86.89;101977.56;5057563;28;20218;-68
2023/09/25 05:07:50;;;;;;;4.83;4.63;;;;;;;10.54;86.94;101979.13;5056983;28;20551;-68
2023/09/25 05:10:22;;;;;;;4.50;4.40;;;;;;;10.52;86.88;101971.22;5056852;28;20206;-68
2023/09/25 05:12:49;;;;;;;5.20;5.10;;;;;;;10.52;86.85;101973.06;5057432;28;20186;-69
2023/09/25 05:15:17;;;;;;;5.50;5.20;;;;;;;10.50;87.17;101981.19;5056746;28;20191;-69
2023/09/25 05:17:44;;;;;;;4.80;4.60;;;;;;;10.50;87.57;101973.19;5057269;28;20604;-69
2023/09/25 05:20:18;;;;;;;5.23;5.00;;;;;;;10.52;87.21;101970.41;5056607;28;20207;-68
2023/09/25 05:22:47;;;;;;;5.40;5.20;;;;;;;10.54;87.29;101969.28;5056713;28;20232;-69
2023/09/25 05:25:14;;;;;;;5.67;5.57;;;;;;;10.58;87.31;101966.38;5056491;28;20616;-69
2023/09/25 05:27:45;;;;;;;5.57;5.10;;;;;;;10.64;87.07;101966.75;5056592;28;20179;-69
2023/09/25 05:30:12;;;;;;;5.07;4.87;;;;;;;10.68;86.98;101967.34;5056757;28;20215;-67
2023/09/25 05:32:41;;;;;;;5.10;4.70;;;;;;;10.67;86.79;101963.81;5056526;28;20278;-67
2023/09/25 05:35:08;;;;;;;5.57;5.47;;;;;;;10.69;86.88;101975.25;5056529;28;20261;-69
2023/09/25 05:37:35;;;;;;;4.87;4.57;;;;;;;10.73;86.80;101966.03;5055424;28;20207;-68
2023/09/25 05:40:05;;;;;;;4.10;4.10;;;;;;;10.76;86.85;101967.59;5056282;28;20237;-68
2023/09/25 05:42:31;;;;;;;4.20;4.20;;;;;;;10.81;86.84;101976.09;5056357;28;20210;-68
2023/09/25 05:44:58;;;;;;;5.27;4.90;;;;;;;10.86;86.47;101973.91;5056900;28;20175;-68
2023/09/25 05:47:24;;;;;;;5.70;5.43;;;;;;;10.89;86.45;101973.66;5056339;28;20253;-69
2023/09/25 05:49:51;;;;;;;4.80;4.53;;;;;;;10.89;86.34;101971.84;5056187;28;20187;-69
2023/09/25 05:52:17;;;;;;;4.47;4.37;;;;;;;10.90;86.19;101968.19;5056161;28;20191;-68
2023/09/25 05:54:45;;;;;;;9.97;3.83;;;;;;;10.94;86.10;101972.31;5056388;28;20255;-68
2023/09/25 05:57:11;;;;;;;5.90;4.17;;;;;;;10.97;86.26;101972.06;5055984;28;20215;-68
2023/09/25 05:59:38;;;;;;;4.40;4.20;;;;;;;11.00;85.82;101966.47;5056074;28;20199;-68
2023/09/25 06:02:04;;;;;;;4.27;4.13;;;;;;;11.00;85.92;101969.13;5055841;28;20211;-68
2023/09/25 06:04:37;;;;;;;4.60;4.40;;;;;;;11.05;85.65;101970.59;5055958;28;20663;-68
2023/09/25 06:07:04;;;;;;;6.77;4.90;;;;;;;11.08;85.79;101975.69;5056162;28;20247;-68
2023/09/25 06:09:32;;;;;;;5.53;5.20;;;;;;;11.08;85.78;101968.50;5055696;28;20529;-68
2023/09/25 06:12:00;;;;;;;4.40;4.27;;;;;;;11.15;85.64;101971.56;5055728;28;20687;-68
2023/09/25 06:14:30;;;;;;;5.17;4.43;;;;;;;11.21;85.59;101963.00;5055842;28;20743;-68
2023/09/25 06:16:59;;;;;;;4.13;4.13;;;;;;;11.28;85.75;101972.25;5055624;28;20199;-69
2023/09/25 06:19:26;;;;;;;6.23;4.10;;;;;;;11.35;85.72;101968.94;5055606;28;20274;-68
2023/09/25 06:21:53;;;;;;;4.00;3.77;;;;;;;11.43;85.78;101973.66;5055556;28;20214;-68
2023/09/25 06:24:21;;;;;;;4.93;4.50;;;;;;;11.50;85.52;101974.84;5055583;28;20249;-68
2023/09/25 06:26:49;;;;;;;8.10;5.00;;;;;;;11.60;85.57;101977.63;5055510;28;20270;-68
2023/09/25 06:29:15;;;;;;;4.27;3.83;;;;;;;11.72;85.30;101979.31;5055505;28;20191;-68
2023/09/25 06:31:42;;;;;;;4.20;3.90;;;;;;;11.81;85.04;101970.50;5055839;28;20237;-68
2023/09/25 06:34:26;;;;;;;4.83;4.57;;;;;;;11.89;84.52;101976.91;5055397;28;20183;-68
2023/09/25 06:36:53;;;;;;;4.57;4.07;;;;;;;11.98;84.51;101980.63;5055768;28;20203;-68
2023/09/25 06:39:20;;;;;;;4.57;4.17;;;;;;;12.05;84.34;101978.31;5055549;28;20651;-68
2023/09/25 06:41:47;;;;;;;5.70;3.60;;;;;;;12.14;83.85;101974.81;5055217;28;20215;-68
2023/09/25 06:44:19;;;;;;;4.10;3.93;;;;;;;12.24;83.62;101973.91;5055504;28;20167;-68
2023/09/25 06:46:46;;;;;;;5.10;4.00;;;;;;;12.39;83.00;101982.44;5055677;28;20195;-68
2023/09/25 06:49:12;;;;;;;4.60;4.50;;;;;;;12.45;82.43;101984.59;5055089;28;20237;-68
2023/09/25 06:51:38;;;;;;;3.93;3.83;;;;;;;12.54;82.25;101977.59;5055262;28;20272;-68
2023/09/25 06:54:06;;;;;;;4.10;4.00;;;;;;;12.62;81.33;101981.31;5055045;28;20187;-68
2023/09/25 06:56:33;;;;;;;4.00;3.63;;;;;;;12.69;80.58;101981.59;5055163;28;20191;-68
2023/09/25 06:58:59;;;;;;;4.33;4.07;;;;;;;12.79;80.55;101977.13;5054941;28;20659;-68
2023/09/25 07:01:25;;;;;;;4.37;4.17;;;;;;;12.90;80.41;101979.72;5054981;28;20266;-68
2023/09/25 07:03:52;;;;;;;5.00;4.77;;;;;;;12.98;80.40;101979.91;5054801;28;20197;-69
2023/09/25 07:06:19;;;;;;;4.57;4.47;;;;;;;13.07;80.38;101976.38;5055096;28;20611;-68
2023/09/25 07:08:46;;;;;;;5.63;5.33;;;;;;;13.17;78.72;101976.44;5055521;28;20523;-68
2023/09/25 07:11:17;;;;;;;4.30;3.90;;;;;;;13.27;78.77;101972.81;5054744;28;20250;-68
2023/09/25 07:13:43;;;;;;;4.50;4.00;;;;;;;13.40;78.13;101969.84;5054735;28;20180;-68
2023/09/25 07:16:10;;;;;;;4.10;4.00;;;;;;;13.51;77.98;101966.16;5055180;28;20182;-68
2023/09/25 07:18:37;;;;;;;4.47;4.27;;;;;;;13.56;78.20;101970.16;5054408;28;20211;-68
2023/09/25 07:21:05;;;;;;;4.03;3.93;;;;;;;13.63;77.52;101968.59;5053907;28;20203;-68
2023/09/25 07:23:32;;;;;;;3.77;3.77;;;;;;;13.75;77.58;101968.47;5054593;28;20567;-68
2023/09/25 07:26:00;;;;;;;4.20;3.67;;;;;;;13.82;76.91;101970.44;5054427;28;20191;-68
2023/09/25 07:28:27;;;;;;;3.87;3.67;;;;;;;13.91;75.80;101972.28;5054627;28;20611;-68
2023/09/25 07:30:54;;;;;;;4.40;4.17;;;;;;;14.03;76.04;101981.03;5054188;28;20264;-68
2023/09/25 07:33:20;;;;;;;4.90;4.53;;;;;;;14.13;75.99;101979.19;5054265;28;20229;-69
2023/09/25 07:35:48;;;;;;;4.30;3.73;;;;;;;14.24;75.87;101980.84;5054172;28;20199;-69
2023/09/25 07:38:14;;;;;;;4.40;4.20;;;;;;;14.32;75.54;101984.50;5054950;28;20268;-69
2023/09/25 07:40:41;;;;;;;4.17;3.53;;;;;;;14.40;75.54;101979.28;5054112;28;20630;-69
2023/09/25 07:43:20;;;;;;;4.07;3.97;;;;;;;14.50;75.61;101981.94;5054674;28;20190;-69
2023/09/25 07:45:48;;;;;;;9.93;3.93;;;;;;;14.59;75.50;101981.06;5054010;28;20269;-69
2023/09/25 07:48:16;;;;;;;3.87;3.57;;;;;;;14.71;75.36;101987.97;5054009;28;20211;-69
2023/09/25 07:50:46;;;;;;;7.73;4.93;;;;;;;14.79;74.07;101987.22;5053874;28;20700;-69
2023/09/25 07:53:13;;;;;;;3.73;3.53;;;;;;;14.97;70.21;101980.91;5053941;28;20623;-69
2023/09/25 07:55:41;;;;;;;3.67;2.57;;;;;;;15.09;69.71;101973.47;5053810;28;20237;-69
2023/09/25 07:58:07;;;;;;;3.87;3.53;;;;;;;15.27;70.24;101979.75;5054020;28;20608;-69
2023/09/25 08:00:37;;;;;;;3.57;3.37;;;;;;;15.31;69.43;101978.44;5053764;28;20237;-68
2023/09/25 08:03:06;;;;;;;3.37;3.27;;;;;;;15.40;69.31;101987.47;5053958;28;20187;-69
2023/09/25 08:05:34;;;;;;;3.47;3.13;;;;;;;15.48;69.03;101980.31;5053705;28;20183;-69
2023/09/25 08:08:00;;;;;;;12.37;3.13;;;;;;;15.59;68.74;101984.66;5053618;28;20191;-69
2023/09/25 08:10:27;;;;;;;3.10;3.00;;;;;;;15.71;67.92;101977.16;5054096;28;20211;-69
2023/09/25 08:12:54;;;;;;;4.80;2.83;;;;;;;15.85;67.56;101982.03;5054327;28;20233;-69
2023/09/25 08:15:22;;;;;;;4.10;2.63;;;;;;;15.99;65.72;101986.88;5053409;28;20214;-69
2023/09/25 08:17:49;;;;;;;2.53;2.37;;;;;;;16.10;64.01;101978.53;5053365;28;20257;-69
2023/09/25 08:20:22;;;;;;;2.70;2.60;;;;;;;16.22;62.81;101984.50;5053460;28;20249;-69
2023/09/25 08:22:50;;;;;;;4.20;2.73;;;;;;;16.32;63.37;101979.88;5053737;28;20263;-69
2023/09/25 08:25:17;;;;;;;3.90;3.60;;;;;;;16.43;63.62;101975.03;5053333;28;20187;-69
2023/09/25 08:27:44;;;;;;;4.20;3.90;;;;;;;16.55;62.45;101975.59;5053877;28;20187;-69
2023/09/25 08:30:12;;;;;;;11.17;3.13;;;;;;;16.74;61.31;101975.44;5053472;28;20213;-69
2023/09/25 08:32:39;;;;;;;2.23;2.23;;;;;;;16.93;58.48;101965.38;5052982;28;20187;-69
2023/09/25 08:35:06;;;;;;;2.80;2.40;;;;;;;16.96;59.42;101963.19;5053475;28;20193;-69
2023/09/25 08:37:33;;;;;;;2.27;2.07;;;;;;;17.00;60.47;101969.97;5053138;28;20199;-69
2023/09/25 08:39:59;;;;;;;3.37;2.90;;;;;;;17.16;61.35;101964.63;5053095;28;20191;-69
2023/09/25 08:42:26;;;;;;;6.77;2.47;;;;;;;17.22;61.36;101968.53;5053098;28;20221;-69
2023/09/25 08:45:00;;;;;;;1.97;1.87;;;;;;;17.33;60.08;101973.59;5053402;28;20186;-69
2023/09/25 08:47:27;;;;;;;2.20;2.20;;;;;;;17.47;59.42;101972.97;5053397;28;20175;-69
2023/09/25 08:49:55;;;;;;;1.90;1.90;;;;;;;17.65;60.56;101970.16;5052947;28;20245;-69
2023/09/25 08:52:23;;;;;;;2.57;2.57;;;;;;;17.77;60.08;101968.81;5053053;28;20202;-69
2023/09/25 08:54:51;;;;;;;2.23;2.23;;;;;;;17.91;58.90;101970.84;5052387;28;20201;-69
2023/09/25 08:57:19;;;;;;;2.30;2.20;;;;;;;18.00;58.38;101972.53;5052856;28;20191;-69
2023/09/25 08:59:47;;;;;;;2.97;2.40;;;;;;;18.14;54.70;101966.44;5052935;28;20663;-69
2023/09/25 09:02:14;;;;;;;2.57;2.43;;;;;;;18.18;52.81;101966.94;5053122;28;20218;-69
2023/09/25 09:04:41;;;;;;;2.73;2.60;;;;;;;18.19;52.74;101971.34;5053509;28;20187;-69
2023/09/25 09:07:09;;;;;;;3.13;2.43;;;;;;;18.15;53.22;101973.56;5052846;28;20195;-69
2023/09/25 09:09:37;;;;;;;2.03;1.97;;;;;;;18.26;52.72;101975.03;5052867;28;20191;-69
2023/09/25 09:12:04;;;;;;;2.53;2.53;;;;;;;18.35;53.25;101976.72;5052730;28;20234;-69
2023/09/25 09:14:41;;;;;;;1.87;1.87;;;;;;;18.49;52.11;101973.31;5052661;28;20190;-69
2023/09/25 09:17:10;;;;;;;1.50;1.50;;;;;;;18.51;52.92;101971.28;5052781;28;20187;-70
2023/09/25 09:19:48;;;;;;;1.90;1.87;;;;;;;18.63;50.83;101969.06;5052783;28;20191;-69
2023/09/25 09:22:16;;;;;;;1.43;1.43;;;;;;;18.64;50.85;101970.75;5052721;28;20698;-69
2023/09/25 09:24:43;;;;;;;1.90;1.90;;;;;;;18.70;53.04;101970.06;5052909;28;20555;-69
2023/09/25 09:27:11;;;;;;;1.87;1.87;;;;;;;18.82;52.42;101967.81;5052779;28;20187;-69
2023/09/25 09:29:40;;;;;;;1.83;1.83;;;;;;;18.95;50.95;101971.69;5053180;28;20666;-69
2023/09/25 09:32:06;;;;;;;1.93;1.80;;;;;;;19.06;49.51;101965.00;5052640;28;20729;-69
2023/09/25 09:34:34;;;;;;;1.60;1.60;;;;;;;19.19;49.83;101965.28;5053044;28;20191;-69
2023/09/25 09:37:01;;;;;;;14.47;13.03;;;;;;;19.22;50.28;101964.94;5052656;28;20194;-69
2023/09/25 09:39:34;;;;;;;2.50;2.10;;;;;;;19.27;50.83;101961.66;5052678;28;20554;-69
2023/09/25 09:42:07;;;;;;;1.63;1.63;;;;;;;19.35;50.40;101958.94;5052587;28;20290;-69
2023/09/25 09:44:34;;;;;;;1.90;1.70;;;;;;;19.36;50.13;101953.31;5056482;28;20232;-69
2023/09/25 09:47:06;;;;;;;1.53;1.53;;;;;;;19.43;48.36;101953.50;5056593;28;20195;-69
2023/09/25 09:49:39;;;;;;;3.23;1.73;;;;;;;19.45;48.76;101952.28;5055015;28;20222;-69
2023/09/25 09:52:06;;;;;;;2.47;2.40;;;;;;;19.47;50.25;101952.09;5056474;28;20211;-70
2023/09/25 09:54:40;;;;;;;2.20;2.20;;;;;;;19.56;49.36;101943.72;5056450;28;20521;-69
2023/09/25 09:57:10;;;;;;;1.70;1.60;;;;;;;19.60;47.71;101945.03;5056448;28;20179;-69
2023/09/25 09:59:37;;;;;;;1.70;1.60;;;;;;;19.63;48.84;101940.28;5056362;28;20192;-69
2023/09/25 10:02:04;;;;;;;4.33;2.50;;;;;;;19.79;46.54;101941.00;5055990;28;20211;-69
2023/09/25 10:04:32;;;;;;;7.90;2.60;;;;;;;19.71;47.91;101938.34;5056022;28;20191;-70
2023/09/25 10:07:04;;;;;;;2.33;2.33;;;;;;;19.80;50.50;101933.72;5056018;28;20187;-70
2023/09/25 10:09:32;;;;;;;1.67;1.67;;;;;;;19.94;47.05;101936.44;5056151;28;20183;-69
2023/09/25 10:11:58;;;;;;;1.67;1.67;;;;;;;19.97;47.72;101935.25;5055780;28;20203;-69
2023/09/25 10:14:26;;;;;;;1.50;1.50;;;;;;;20.04;48.17;101930.75;5055629;28;20187;-69
2023/09/25 10:17:00;;;;;;;1.20;1.20;;;;;;;20.09;47.77;101931.06;5056051;28;20191;-69
2023/09/25 10:19:47;;;;;;;1.97;1.87;;;;;;;20.17;47.63;101928.25;5055686;28;20217;-69
2023/09/25 10:22:16;;;;;;;5.00;1.57;;;;;;;20.29;46.01;101929.53;5055691;28;20575;-69
2023/09/25 10:24:45;;;;;;;2.93;2.10;;;;;;;20.37;47.07;101925.88;5055605;28;20184;-69
2023/09/25 10:27:16;;;;;;;1.30;1.30;;;;;;;20.43;46.81;101922.41;5055833;28;20209;-70
2023/09/25 10:30:06;;;;;;;1.70;1.70;;;;;;;20.55;46.19;101910.03;5055430;28;20183;-70
2023/09/25 10:32:37;;;;;;;1.73;1.70;;;;;;;20.64;43.45;101914.34;5055812;28;20179;-69
2023/09/25 10:35:41;;;;;;;1.30;1.30;;;;;;;20.56;43.71;101908.19;5055738;28;20266;-70
2023/09/25 10:38:16;;;;;;;1.50;1.50;;;;;;;20.59;45.36;101903.19;5055559;28;20206;-70
2023/09/25 10:41:07;;;;;;;2.47;1.70;;;;;;;20.58;43.53;101903.41;5055260;28;20210;-69
2023/09/25 10:43:35;;;;;;;3.33;1.50;;;;;;;20.52;45.32;101900.41;5055530;28;20175;-70
2023/09/25 10:46:03;;;;;;;2.70;1.67;;;;;;;20.61;44.87;101903.03;5055258;28;20780;-70
2023/09/25 10:48:31;;;;;;;1.30;1.30;;;;;;;20.63;46.88;101900.94;5055157;28;20270;-70
2023/09/25 10:50:58;;;;;;;2.20;1.53;;;;;;;20.69;45.07;101889.34;5055071;28;20214;-69
2023/09/25 10:53:26;;;;;;;2.27;1.43;;;;;;;20.61;46.45;101894.88;5055336;28;20183;-69
2023/09/25 10:55:53;;;;;;;1.53;1.53;;;;;;;20.56;45.87;101905.47;5054093;28;20233;-70
2023/09/25 10:58:21;;;;;;;1.33;1.33;;;;;;;20.44;46.32;101902.38;5055204;28;20592;-70
2023/09/25 11:00:49;;;;;;;2.13;2.03;;;;;;;20.33;47.12;101895.53;5054975;28;20217;-70
2023/09/25 11:03:17;;;;;;;1.60;1.60;;;;;;;20.44;47.87;101899.66;5055193;28;20207;-70
2023/09/25 11:05:44;;;;;;;1.93;1.93;;;;;;;20.52;44.72;101910.44;5054804;28;20241;-70
2023/09/25 11:08:15;;;;;;;1.70;1.70;;;;;;;20.57;45.30;101899.84;5054767;28;20181;-70
2023/09/25 11:10:44;;;;;;;2.33;2.33;;;;;;;20.62;44.97;101891.97;5055239;28;20215;-69
2023/09/25 11:13:11;;;;;;;2.00;2.00;;;;;;;20.66;45.68;101898.72;5055246;28;20653;-69
2023/09/25 11:15:39;;;;;;;7.70;1.67;;;;;;;20.78;43.84;101893.63;5054614;28;20199;-69
2023/09/25 11:18:07;;;;;;;1.30;1.30;;;;;;;20.85;43.64;101902.69;5054763;28;20206;-70
2023/09/25 11:20:34;;;;;;;4.63;1.80;;;;;;;20.92;42.98;101895.47;5054574;28;20210;-69
2023/09/25 11:23:09;;;;;;;1.83;1.30;;;;;;;20.86;43.37;101897.09;5054782;28;20547;-69
2023/09/25 11:25:47;;;;;;;1.60;1.60;;;;;;;20.87;44.77;101896.06;5054739;28;20179;-69
2023/09/25 11:28:17;;;;;;;2.60;2.47;;;;;;;20.78;46.14;101899.06;5054755;28;20567;-69
2023/09/25 11:30:46;;;;;;;1.90;1.90;;;;;;;20.80;44.65;101897.84;5054312;28;20744;-69